sensor_id;sensor_type;location;lat;lon;timestamp;P1;durP1;ratioP1;P2;durP2;ratioP2
30862;SDS011;17573;55.922;37.540;2023-01-15T00:01:03;25.60;;;14.68;;
30862;SDS011;17573;55.922;37.540;2023-01-15T00:03:30;31.27;;;20.15;;
30862;SDS011;17573;55.922;37.540;2023-01-15T00:06:00;25.08;;;15.05;;
30862;SDS011;17573;55.922;37.540;2023-01-15T00:08:27;30.38;;;12.77;;
30862;SDS011;17573;55.922;37.540;2023-01-15T00:10:53;42.83;;;18.23;;
30862;SDS011;17573;55.922;37.540;2023-01-15T00:13:20;36.95;;;16.58;;
30862;SDS011;17573;55.922;37.540;2023-01-15T00:15:46;26.80;;;14.20;;
30862;SDS011;17573;55.922;37.540;2023-01-15T00:18:12;33.92;;;15.20;;
30862;SDS011;17573;55.922;37.540;2023-01-15T00:20:38;43.08;;;17.60;;
30862;SDS011;17573;55.922;37.540;2023-01-15T00:23:04;23.15;;;13.65;;
30862;SDS011;17573;55.922;37.540;2023-01-15T00:25:30;33.35;;;16.40;;
30862;SDS011;17573;55.922;37.540;2023-01-15T00:28:14;26.50;;;14.38;;
30862;SDS011;17573;55.922;37.540;2023-01-15T00:30:44;27.25;;;14.32;;
30862;SDS011;17573;55.922;37.540;2023-01-15T00:33:10;25.80;;;13.73;;
30862;SDS011;17573;55.922;37.540;2023-01-15T00:35:36;26.13;;;14.98;;
30862;SDS011;17573;55.922;37.540;2023-01-15T00:38:02;22.80;;;15.50;;
30862;SDS011;17573;55.922;37.540;2023-01-15T00:40:28;17.95;;;10.80;;
30862;SDS011;17573;55.922;37.540;2023-01-15T00:42:54;34.33;;;16.50;;
30862;SDS011;17573;55.922;37.540;2023-01-15T00:45:20;25.13;;;15.57;;
30862;SDS011;17573;55.922;37.540;2023-01-15T00:47:46;47.05;;;15.10;;
30862;SDS011;17573;55.922;37.540;2023-01-15T00:50:13;25.25;;;14.57;;
30862;SDS011;17573;55.922;37.540;2023-01-15T00:52:40;31.63;;;16.10;;
30862;SDS011;17573;55.922;37.540;2023-01-15T00:55:06;30.20;;;14.23;;
30862;SDS011;17573;55.922;37.540;2023-01-15T00:57:33;28.98;;;15.23;;
30862;SDS011;17573;55.922;37.540;2023-01-15T00:59:59;36.70;;;15.95;;
30862;SDS011;17573;55.922;37.540;2023-01-15T01:02:25;24.08;;;15.88;;
30862;SDS011;17573;55.922;37.540;2023-01-15T01:04:51;34.80;;;17.02;;
30862;SDS011;17573;55.922;37.540;2023-01-15T01:07:16;31.42;;;16.40;;
30862;SDS011;17573;55.922;37.540;2023-01-15T01:09:43;30.95;;;15.93;;
30862;SDS011;17573;55.922;37.540;2023-01-15T01:12:09;19.23;;;13.00;;
30862;SDS011;17573;55.922;37.540;2023-01-15T01:14:35;27.85;;;16.33;;
30862;SDS011;17573;55.922;37.540;2023-01-15T01:17:02;26.90;;;15.55;;
30862;SDS011;17573;55.922;37.540;2023-01-15T01:19:28;33.58;;;16.40;;
30862;SDS011;17573;55.922;37.540;2023-01-15T01:21:54;27.38;;;14.88;;
30862;SDS011;17573;55.922;37.540;2023-01-15T01:24:21;27.42;;;17.15;;
30862;SDS011;17573;55.922;37.540;2023-01-15T01:26:48;26.55;;;14.10;;
30862;SDS011;17573;55.922;37.540;2023-01-15T01:29:16;39.00;;;17.90;;
30862;SDS011;17573;55.922;37.540;2023-01-15T01:31:43;27.13;;;15.23;;
30862;SDS011;17573;55.922;37.540;2023-01-15T01:34:09;33.10;;;15.57;;
30862;SDS011;17573;55.922;37.540;2023-01-15T01:36:37;38.10;;;15.77;;
30862;SDS011;17573;55.922;37.540;2023-01-15T01:39:04;28.92;;;18.10;;
30862;SDS011;17573;55.922;37.540;2023-01-15T01:41:31;26.42;;;14.20;;
30862;SDS011;17573;55.922;37.540;2023-01-15T01:44:05;30.60;;;16.35;;
30862;SDS011;17573;55.922;37.540;2023-01-15T01:46:34;35.33;;;15.18;;
30862;SDS011;17573;55.922;37.540;2023-01-15T01:49:05;30.00;;;17.77;;
30862;SDS011;17573;55.922;37.540;2023-01-15T01:51:35;24.95;;;14.27;;
30862;SDS011;17573;55.922;37.540;2023-01-15T01:54:04;28.80;;;15.35;;
30862;SDS011;17573;55.922;37.540;2023-01-15T01:56:31;31.85;;;16.85;;
30862;SDS011;17573;55.922;37.540;2023-01-15T01:58:59;29.80;;;17.10;;
30862;SDS011;17573;55.922;37.540;2023-01-15T02:01:26;34.67;;;15.93;;
30862;SDS011;17573;55.922;37.540;2023-01-15T02:03:52;34.50;;;16.88;;
30862;SDS011;17573;55.922;37.540;2023-01-15T02:06:18;30.13;;;15.55;;
30862;SDS011;17573;55.922;37.540;2023-01-15T02:08:44;35.95;;;19.30;;
30862;SDS011;17573;55.922;37.540;2023-01-15T02:11:11;40.00;;;14.20;;
30862;SDS011;17573;55.922;37.540;2023-01-15T02:13:48;36.35;;;15.68;;
30862;SDS011;17573;55.922;37.540;2023-01-15T02:26:58;26.58;;;11.82;;
30862;SDS011;17573;55.922;37.540;2023-01-15T02:29:33;32.15;;;14.27;;
30862;SDS011;17573;55.922;37.540;2023-01-15T02:32:13;22.40;;;14.70;;
30862;SDS011;17573;55.922;37.540;2023-01-15T02:34:45;29.48;;;17.60;;
30862;SDS011;17573;55.922;37.540;2023-01-15T02:37:17;26.17;;;14.52;;
30862;SDS011;17573;55.922;37.540;2023-01-15T02:39:47;28.63;;;16.10;;
30862;SDS011;17573;55.922;37.540;2023-01-15T02:42:15;29.00;;;13.25;;
30862;SDS011;17573;55.922;37.540;2023-01-15T02:44:46;24.13;;;13.75;;
30862;SDS011;17573;55.922;37.540;2023-01-15T02:47:15;31.83;;;15.18;;
30862;SDS011;17573;55.922;37.540;2023-01-15T02:49:43;28.58;;;13.15;;
30862;SDS011;17573;55.922;37.540;2023-01-15T02:52:16;33.50;;;14.32;;
30862;SDS011;17573;55.922;37.540;2023-01-15T02:55:05;39.92;;;18.15;;
30862;SDS011;17573;55.922;37.540;2023-01-15T02:57:40;40.28;;;18.77;;
30862;SDS011;17573;55.922;37.540;2023-01-15T03:00:08;34.60;;;15.10;;
30862;SDS011;17573;55.922;37.540;2023-01-15T03:02:39;32.15;;;15.88;;
30862;SDS011;17573;55.922;37.540;2023-01-15T03:05:16;31.90;;;15.77;;
30862;SDS011;17573;55.922;37.540;2023-01-15T03:07:48;24.77;;;13.80;;
30862;SDS011;17573;55.922;37.540;2023-01-15T03:10:18;36.90;;;17.02;;
30862;SDS011;17573;55.922;37.540;2023-01-15T03:12:47;43.13;;;18.30;;
30862;SDS011;17573;55.922;37.540;2023-01-15T03:15:43;29.15;;;16.17;;
30862;SDS011;17573;55.922;37.540;2023-01-15T03:19:03;32.50;;;15.77;;
30862;SDS011;17573;55.922;37.540;2023-01-15T03:21:27;33.95;;;15.45;;
30862;SDS011;17573;55.922;37.540;2023-01-15T03:23:56;41.60;;;17.42;;
30862;SDS011;17573;55.922;37.540;2023-01-15T03:26:26;35.53;;;17.27;;
30862;SDS011;17573;55.922;37.540;2023-01-15T03:28:54;26.55;;;14.15;;
30862;SDS011;17573;55.922;37.540;2023-01-15T03:31:21;40.47;;;16.98;;
30862;SDS011;17573;55.922;37.540;2023-01-15T03:33:48;34.88;;;16.05;;
30862;SDS011;17573;55.922;37.540;2023-01-15T03:36:18;28.45;;;15.63;;
30862;SDS011;17573;55.922;37.540;2023-01-15T03:38:46;37.60;;;19.35;;
30862;SDS011;17573;55.922;37.540;2023-01-15T03:44:15;34.13;;;16.65;;
30862;SDS011;17573;55.922;37.540;2023-01-15T03:47:05;29.63;;;15.73;;
30862;SDS011;17573;55.922;37.540;2023-01-15T03:49:43;34.42;;;16.08;;
30862;SDS011;17573;55.922;37.540;2023-01-15T03:58:45;34.00;;;15.55;;
30862;SDS011;17573;55.922;37.540;2023-01-15T04:01:23;31.08;;;16.98;;
30862;SDS011;17573;55.922;37.540;2023-01-15T04:03:52;32.47;;;17.38;;
30862;SDS011;17573;55.922;37.540;2023-01-15T04:06:22;26.30;;;13.93;;
30862;SDS011;17573;55.922;37.540;2023-01-15T04:08:51;30.75;;;14.25;;
30862;SDS011;17573;55.922;37.540;2023-01-15T04:11:22;37.60;;;18.92;;
30862;SDS011;17573;55.922;37.540;2023-01-15T04:13:51;33.33;;;16.27;;
30862;SDS011;17573;55.922;37.540;2023-01-15T04:16:33;21.08;;;12.93;;
30862;SDS011;17573;55.922;37.540;2023-01-15T04:18:59;35.15;;;17.10;;
30862;SDS011;17573;55.922;37.540;2023-01-15T04:21:27;33.80;;;16.33;;
30862;SDS011;17573;55.922;37.540;2023-01-15T04:23:52;35.15;;;16.80;;
30862;SDS011;17573;55.922;37.540;2023-01-15T04:26:18;39.60;;;17.55;;
30862;SDS011;17573;55.922;37.540;2023-01-15T04:28:44;31.70;;;17.60;;
30862;SDS011;17573;55.922;37.540;2023-01-15T04:31:10;30.65;;;13.85;;
30862;SDS011;17573;55.922;37.540;2023-01-15T04:33:36;34.90;;;16.30;;
30862;SDS011;17573;55.922;37.540;2023-01-15T04:36:03;43.85;;;17.35;;
30862;SDS011;17573;55.922;37.540;2023-01-15T04:38:29;41.45;;;17.73;;
30862;SDS011;17573;55.922;37.540;2023-01-15T04:40:55;40.38;;;16.60;;
30862;SDS011;17573;55.922;37.540;2023-01-15T04:43:43;33.58;;;16.17;;
30862;SDS011;17573;55.922;37.540;2023-01-15T04:46:28;39.42;;;17.98;;
30862;SDS011;17573;55.922;37.540;2023-01-15T04:48:54;36.03;;;15.93;;
30862;SDS011;17573;55.922;37.540;2023-01-15T04:51:19;29.80;;;15.63;;
30862;SDS011;17573;55.922;37.540;2023-01-15T04:53:45;32.33;;;16.00;;
30862;SDS011;17573;55.922;37.540;2023-01-15T04:56:11;37.35;;;17.75;;
30862;SDS011;17573;55.922;37.540;2023-01-15T04:58:37;29.65;;;13.93;;
30862;SDS011;17573;55.922;37.540;2023-01-15T05:01:08;19.60;;;13.60;;
30862;SDS011;17573;55.922;37.540;2023-01-15T05:03:38;35.40;;;16.75;;
30862;SDS011;17573;55.922;37.540;2023-01-15T05:06:04;36.08;;;17.33;;
30862;SDS011;17573;55.922;37.540;2023-01-15T05:08:30;34.80;;;16.63;;
30862;SDS011;17573;55.922;37.540;2023-01-15T05:10:59;41.72;;;18.25;;
30862;SDS011;17573;55.922;37.540;2023-01-15T05:13:29;35.40;;;16.13;;
30862;SDS011;17573;55.922;37.540;2023-01-15T05:18:32;51.38;;;22.02;;
30862;SDS011;17573;55.922;37.540;2023-01-15T05:20:58;43.70;;;18.85;;
30862;SDS011;17573;55.922;37.540;2023-01-15T05:23:23;51.20;;;18.42;;
30862;SDS011;17573;55.922;37.540;2023-01-15T05:25:49;48.15;;;22.83;;
30862;SDS011;17573;55.922;37.540;2023-01-15T05:28:15;36.40;;;18.92;;
30862;SDS011;17573;55.922;37.540;2023-01-15T05:30:41;48.75;;;20.77;;
30862;SDS011;17573;55.922;37.540;2023-01-15T05:33:06;35.10;;;22.25;;
30862;SDS011;17573;55.922;37.540;2023-01-15T05:35:32;35.72;;;20.10;;
30862;SDS011;17573;55.922;37.540;2023-01-15T05:37:58;44.17;;;20.77;;
30862;SDS011;17573;55.922;37.540;2023-01-15T05:40:24;32.72;;;16.92;;
30862;SDS011;17573;55.922;37.540;2023-01-15T05:42:49;48.22;;;17.77;;
30862;SDS011;17573;55.922;37.540;2023-01-15T05:45:15;38.85;;;19.15;;
30862;SDS011;17573;55.922;37.540;2023-01-15T05:47:41;32.55;;;15.98;;
30862;SDS011;17573;55.922;37.540;2023-01-15T05:50:07;32.20;;;17.08;;
30862;SDS011;17573;55.922;37.540;2023-01-15T05:52:34;16.90;;;10.77;;
30862;SDS011;17573;55.922;37.540;2023-01-15T05:55:00;45.40;;;17.10;;
30862;SDS011;17573;55.922;37.540;2023-01-15T05:57:26;47.20;;;19.35;;
30862;SDS011;17573;55.922;37.540;2023-01-15T05:59:51;43.72;;;21.30;;
30862;SDS011;17573;55.922;37.540;2023-01-15T06:02:19;26.23;;;12.20;;
30862;SDS011;17573;55.922;37.540;2023-01-15T06:04:45;40.13;;;13.13;;
30862;SDS011;17573;55.922;37.540;2023-01-15T06:07:11;49.10;;;19.33;;
30862;SDS011;17573;55.922;37.540;2023-01-15T06:09:37;32.75;;;17.05;;
30862;SDS011;17573;55.922;37.540;2023-01-15T06:12:03;31.02;;;13.07;;
30862;SDS011;17573;55.922;37.540;2023-01-15T06:14:29;31.73;;;16.38;;
30862;SDS011;17573;55.922;37.540;2023-01-15T06:16:54;50.47;;;19.85;;
30862;SDS011;17573;55.922;37.540;2023-01-15T06:19:20;58.40;;;19.85;;
30862;SDS011;17573;55.922;37.540;2023-01-15T06:21:46;46.60;;;18.85;;
30862;SDS011;17573;55.922;37.540;2023-01-15T06:24:13;50.85;;;19.73;;
30862;SDS011;17573;55.922;37.540;2023-01-15T06:26:41;48.05;;;19.85;;
30862;SDS011;17573;55.922;37.540;2023-01-15T06:29:06;35.72;;;16.45;;
30862;SDS011;17573;55.922;37.540;2023-01-15T06:31:32;46.03;;;16.42;;
30862;SDS011;17573;55.922;37.540;2023-01-15T06:33:58;35.97;;;16.00;;
30862;SDS011;17573;55.922;37.540;2023-01-15T06:36:25;40.35;;;17.52;;
30862;SDS011;17573;55.922;37.540;2023-01-15T06:38:51;39.53;;;19.45;;
30862;SDS011;17573;55.922;37.540;2023-01-15T06:41:21;41.08;;;18.17;;
30862;SDS011;17573;55.922;37.540;2023-01-15T06:44:15;33.20;;;16.63;;
30862;SDS011;17573;55.922;37.540;2023-01-15T06:47:13;44.08;;;15.20;;
30862;SDS011;17573;55.922;37.540;2023-01-15T06:49:50;45.05;;;16.23;;
30862;SDS011;17573;55.922;37.540;2023-01-15T06:52:21;33.85;;;16.90;;
30862;SDS011;17573;55.922;37.540;2023-01-15T06:54:48;49.20;;;16.63;;
30862;SDS011;17573;55.922;37.540;2023-01-15T06:57:13;29.90;;;14.02;;
30862;SDS011;17573;55.922;37.540;2023-01-15T06:59:39;57.83;;;20.35;;
30862;SDS011;17573;55.922;37.540;2023-01-15T07:02:05;39.70;;;16.02;;
30862;SDS011;17573;55.922;37.540;2023-01-15T07:04:31;58.58;;;19.75;;
30862;SDS011;17573;55.922;37.540;2023-01-15T07:06:57;49.28;;;18.98;;
30862;SDS011;17573;55.922;37.540;2023-01-15T07:09:23;36.28;;;15.90;;
30862;SDS011;17573;55.922;37.540;2023-01-15T07:11:49;27.60;;;12.80;;
30862;SDS011;17573;55.922;37.540;2023-01-15T07:14:18;43.78;;;17.40;;
30862;SDS011;17573;55.922;37.540;2023-01-15T07:16:45;39.28;;;14.73;;
30862;SDS011;17573;55.922;37.540;2023-01-15T07:19:11;56.42;;;17.85;;
30862;SDS011;17573;55.922;37.540;2023-01-15T07:21:37;51.72;;;18.60;;
30862;SDS011;17573;55.922;37.540;2023-01-15T07:24:04;32.47;;;13.52;;
30862;SDS011;17573;55.922;37.540;2023-01-15T07:26:30;31.88;;;16.25;;
30862;SDS011;17573;55.922;37.540;2023-01-15T07:28:56;32.15;;;14.38;;
30862;SDS011;17573;55.922;37.540;2023-01-15T07:31:22;42.05;;;17.23;;
30862;SDS011;17573;55.922;37.540;2023-01-15T07:33:47;41.38;;;15.13;;
30862;SDS011;17573;55.922;37.540;2023-01-15T07:36:13;44.03;;;17.15;;
30862;SDS011;17573;55.922;37.540;2023-01-15T07:38:39;48.92;;;16.27;;
30862;SDS011;17573;55.922;37.540;2023-01-15T07:41:05;58.85;;;20.27;;
30862;SDS011;17573;55.922;37.540;2023-01-15T07:43:49;39.13;;;16.58;;
30862;SDS011;17573;55.922;37.540;2023-01-15T07:46:34;52.25;;;20.30;;
30862;SDS011;17573;55.922;37.540;2023-01-15T07:49:18;45.22;;;17.10;;
30862;SDS011;17573;55.922;37.540;2023-01-15T07:52:02;43.70;;;16.42;;
30862;SDS011;17573;55.922;37.540;2023-01-15T07:54:29;40.85;;;16.92;;
30862;SDS011;17573;55.922;37.540;2023-01-15T07:56:55;30.73;;;15.48;;
30862;SDS011;17573;55.922;37.540;2023-01-15T07:59:21;51.88;;;18.33;;
30862;SDS011;17573;55.922;37.540;2023-01-15T08:01:47;42.38;;;17.92;;
30862;SDS011;17573;55.922;37.540;2023-01-15T08:04:13;55.65;;;20.23;;
30862;SDS011;17573;55.922;37.540;2023-01-15T08:06:38;51.42;;;20.65;;
30862;SDS011;17573;55.922;37.540;2023-01-15T08:09:04;57.13;;;17.17;;
30862;SDS011;17573;55.922;37.540;2023-01-15T08:11:31;58.30;;;19.17;;
30862;SDS011;17573;55.922;37.540;2023-01-15T08:14:16;37.13;;;11.98;;
30862;SDS011;17573;55.922;37.540;2023-01-15T08:17:00;36.92;;;18.35;;
30862;SDS011;17573;55.922;37.540;2023-01-15T08:19:26;46.20;;;17.05;;
30862;SDS011;17573;55.922;37.540;2023-01-15T08:21:57;55.53;;;17.58;;
30862;SDS011;17573;55.922;37.540;2023-01-15T08:24:24;45.08;;;19.13;;
30862;SDS011;17573;55.922;37.540;2023-01-15T08:26:51;56.92;;;18.95;;
30862;SDS011;17573;55.922;37.540;2023-01-15T08:29:17;50.05;;;16.95;;
30862;SDS011;17573;55.922;37.540;2023-01-15T08:31:45;48.90;;;17.25;;
30862;SDS011;17573;55.922;37.540;2023-01-15T08:34:12;26.65;;;15.02;;
30862;SDS011;17573;55.922;37.540;2023-01-15T08:36:38;36.85;;;14.95;;
30862;SDS011;17573;55.922;37.540;2023-01-15T08:39:04;57.20;;;19.70;;
30862;SDS011;17573;55.922;37.540;2023-01-15T08:41:30;39.35;;;15.75;;
30862;SDS011;17573;55.922;37.540;2023-01-15T08:43:57;57.58;;;18.95;;
30862;SDS011;17573;55.922;37.540;2023-01-15T08:46:24;45.65;;;17.13;;
30862;SDS011;17573;55.922;37.540;2023-01-15T08:48:50;51.92;;;19.45;;
30862;SDS011;17573;55.922;37.540;2023-01-15T08:51:17;52.08;;;19.17;;
30862;SDS011;17573;55.922;37.540;2023-01-15T08:53:44;51.20;;;20.20;;
30862;SDS011;17573;55.922;37.540;2023-01-15T08:56:19;44.97;;;18.17;;
30862;SDS011;17573;55.922;37.540;2023-01-15T08:58:45;45.28;;;15.15;;
30862;SDS011;17573;55.922;37.540;2023-01-15T09:01:12;56.63;;;18.80;;
30862;SDS011;17573;55.922;37.540;2023-01-15T09:03:41;49.38;;;17.70;;
30862;SDS011;17573;55.922;37.540;2023-01-15T09:06:07;39.05;;;19.60;;
30862;SDS011;17573;55.922;37.540;2023-01-15T09:08:33;51.97;;;21.88;;
30862;SDS011;17573;55.922;37.540;2023-01-15T09:11:00;57.75;;;20.25;;
30862;SDS011;17573;55.922;37.540;2023-01-15T09:13:28;38.95;;;18.88;;
30862;SDS011;17573;55.922;37.540;2023-01-15T09:15:58;38.38;;;13.40;;
30862;SDS011;17573;55.922;37.540;2023-01-15T09:18:28;58.28;;;21.48;;
30862;SDS011;17573;55.922;37.540;2023-01-15T09:20:54;56.90;;;23.10;;
30862;SDS011;17573;55.922;37.540;2023-01-15T09:23:20;42.65;;;19.08;;
30862;SDS011;17573;55.922;37.540;2023-01-15T09:25:50;32.05;;;15.45;;
30862;SDS011;17573;55.922;37.540;2023-01-15T09:30:45;42.50;;;19.55;;
30862;SDS011;17573;55.922;37.540;2023-01-15T09:33:11;53.33;;;20.00;;
30862;SDS011;17573;55.922;37.540;2023-01-15T09:35:37;36.78;;;17.70;;
30862;SDS011;17573;55.922;37.540;2023-01-15T09:38:03;56.72;;;19.63;;
30862;SDS011;17573;55.922;37.540;2023-01-15T09:45:43;49.05;;;19.50;;
30862;SDS011;17573;55.922;37.540;2023-01-15T09:56:52;42.30;;;21.20;;
30862;SDS011;17573;55.922;37.540;2023-01-15T10:01:47;49.92;;;19.00;;
30862;SDS011;17573;55.922;37.540;2023-01-15T10:04:16;33.45;;;19.00;;
30862;SDS011;17573;55.922;37.540;2023-01-15T10:09:42;47.75;;;19.50;;
30862;SDS011;17573;55.922;37.540;2023-01-15T10:12:16;42.03;;;19.30;;
30862;SDS011;17573;55.922;37.540;2023-01-15T10:15:03;48.17;;;19.88;;
30862;SDS011;17573;55.922;37.540;2023-01-15T10:17:36;29.98;;;16.58;;
30862;SDS011;17573;55.922;37.540;2023-01-15T10:20:11;55.55;;;22.63;;
30862;SDS011;17573;55.922;37.540;2023-01-15T10:23:06;37.40;;;16.90;;
30862;SDS011;17573;55.922;37.540;2023-01-15T10:25:30;45.42;;;18.80;;
30862;SDS011;17573;55.922;37.540;2023-01-15T10:28:04;39.72;;;18.00;;
30862;SDS011;17573;55.922;37.540;2023-01-15T10:30:52;36.88;;;18.58;;
30862;SDS011;17573;55.922;37.540;2023-01-15T10:46:58;36.53;;;14.60;;
30862;SDS011;17573;55.922;37.540;2023-01-15T10:49:29;32.10;;;19.02;;
30862;SDS011;17573;55.922;37.540;2023-01-15T10:51:56;28.55;;;16.23;;
30862;SDS011;17573;55.922;37.540;2023-01-15T10:54:37;39.00;;;20.80;;
30862;SDS011;17573;55.922;37.540;2023-01-15T10:57:08;52.72;;;21.42;;
30862;SDS011;17573;55.922;37.540;2023-01-15T11:04:57;59.10;;;21.05;;
30862;SDS011;17573;55.922;37.540;2023-01-15T11:07:25;54.78;;;19.58;;
30862;SDS011;17573;55.922;37.540;2023-01-15T11:09:54;54.85;;;19.55;;
30862;SDS011;17573;55.922;37.540;2023-01-15T11:12:21;16.52;;;10.35;;
30862;SDS011;17573;55.922;37.540;2023-01-15T11:14:48;12.60;;;8.77;;
30862;SDS011;17573;55.922;37.540;2023-01-15T11:17:45;23.10;;;12.27;;
30862;SDS011;17573;55.922;37.540;2023-01-15T11:20:31;37.85;;;17.20;;
30862;SDS011;17573;55.922;37.540;2023-01-15T11:23:09;11.10;;;7.93;;
30862;SDS011;17573;55.922;37.540;2023-01-15T11:25:37;28.67;;;14.55;;
30862;SDS011;17573;55.922;37.540;2023-01-15T11:28:12;38.20;;;11.93;;
30862;SDS011;17573;55.922;37.540;2023-01-15T11:30:40;43.58;;;14.45;;
30862;SDS011;17573;55.922;37.540;2023-01-15T11:33:24;25.23;;;10.75;;
30862;SDS011;17573;55.922;37.540;2023-01-15T11:35:56;33.72;;;15.63;;
30862;SDS011;17573;55.922;37.540;2023-01-15T11:38:24;18.45;;;9.85;;
30862;SDS011;17573;55.922;37.540;2023-01-15T11:40:56;30.42;;;15.63;;
30862;SDS011;17573;55.922;37.540;2023-01-15T11:43:27;15.27;;;8.90;;
30862;SDS011;17573;55.922;37.540;2023-01-15T11:46:45;25.65;;;9.98;;
30862;SDS011;17573;55.922;37.540;2023-01-15T11:49:22;30.75;;;10.30;;
30862;SDS011;17573;55.922;37.540;2023-01-15T11:52:08;27.52;;;14.50;;
30862;SDS011;17573;55.922;37.540;2023-01-15T11:54:40;8.48;;;7.03;;
30862;SDS011;17573;55.922;37.540;2023-01-15T11:57:09;26.27;;;12.63;;
30862;SDS011;17573;55.922;37.540;2023-01-15T11:59:36;19.60;;;11.57;;
30862;SDS011;17573;55.922;37.540;2023-01-15T12:02:15;37.30;;;15.20;;
30862;SDS011;17573;55.922;37.540;2023-01-15T12:04:49;20.80;;;11.65;;
30862;SDS011;17573;55.922;37.540;2023-01-15T12:07:23;35.70;;;12.90;;
30862;SDS011;17573;55.922;37.540;2023-01-15T12:13:13;31.48;;;14.27;;
30862;SDS011;17573;55.922;37.540;2023-01-15T12:15:56;26.05;;;15.13;;
30862;SDS011;17573;55.922;37.540;2023-01-15T12:18:32;36.25;;;13.15;;
30862;SDS011;17573;55.922;37.540;2023-01-15T12:24:11;30.05;;;16.00;;
30862;SDS011;17573;55.922;37.540;2023-01-15T12:29:36;37.67;;;16.02;;
30862;SDS011;17573;55.922;37.540;2023-01-15T12:32:09;31.52;;;15.18;;
30862;SDS011;17573;55.922;37.540;2023-01-15T12:37:25;30.35;;;12.25;;
30862;SDS011;17573;55.922;37.540;2023-01-15T12:39:55;43.15;;;12.52;;
30862;SDS011;17573;55.922;37.540;2023-01-15T12:42:23;19.90;;;10.80;;
30862;SDS011;17573;55.922;37.540;2023-01-15T12:45:14;29.00;;;13.30;;
30862;SDS011;17573;55.922;37.540;2023-01-15T12:47:43;22.98;;;10.77;;
30862;SDS011;17573;55.922;37.540;2023-01-15T12:50:34;29.17;;;12.32;;
30862;SDS011;17573;55.922;37.540;2023-01-15T13:01:17;24.45;;;10.50;;
30862;SDS011;17573;55.922;37.540;2023-01-15T13:06:22;25.45;;;12.90;;
30862;SDS011;17573;55.922;37.540;2023-01-15T13:09:13;33.00;;;13.02;;
30862;SDS011;17573;55.922;37.540;2023-01-15T13:11:53;27.70;;;12.15;;
30862;SDS011;17573;55.922;37.540;2023-01-15T13:14:18;30.42;;;12.85;;
30862;SDS011;17573;55.922;37.540;2023-01-15T13:17:51;31.02;;;11.52;;
30862;SDS011;17573;55.922;37.540;2023-01-15T13:22:25;23.35;;;11.90;;
30862;SDS011;17573;55.922;37.540;2023-01-15T13:25:00;23.27;;;10.27;;
30862;SDS011;17573;55.922;37.540;2023-01-15T13:36:40;32.42;;;13.25;;
30862;SDS011;17573;55.922;37.540;2023-01-15T13:39:14;32.40;;;11.30;;
30862;SDS011;17573;55.922;37.540;2023-01-15T13:41:45;19.20;;;12.20;;
30862;SDS011;17573;55.922;37.540;2023-01-15T13:44:33;29.48;;;11.15;;
30862;SDS011;17573;55.922;37.540;2023-01-15T13:47:03;27.75;;;13.30;;
30862;SDS011;17573;55.922;37.540;2023-01-15T13:49:40;25.73;;;10.93;;
30862;SDS011;17573;55.922;37.540;2023-01-15T13:55:11;35.72;;;12.02;;
30862;SDS011;17573;55.922;37.540;2023-01-15T13:57:44;26.48;;;11.70;;
30862;SDS011;17573;55.922;37.540;2023-01-15T14:00:29;22.23;;;9.88;;
30862;SDS011;17573;55.922;37.540;2023-01-15T14:02:58;28.85;;;9.52;;
30862;SDS011;17573;55.922;37.540;2023-01-15T14:07:55;13.07;;;6.97;;
30862;SDS011;17573;55.922;37.540;2023-01-15T14:10:31;27.60;;;12.65;;
30862;SDS011;17573;55.922;37.540;2023-01-15T14:15:50;21.52;;;10.02;;
30862;SDS011;17573;55.922;37.540;2023-01-15T14:21:00;18.50;;;7.45;;
30862;SDS011;17573;55.922;37.540;2023-01-15T14:23:47;14.27;;;7.80;;
30862;SDS011;17573;55.922;37.540;2023-01-15T14:32:01;12.98;;;7.63;;
30862;SDS011;17573;55.922;37.540;2023-01-15T14:34:53;23.20;;;11.88;;
30862;SDS011;17573;55.922;37.540;2023-01-15T14:37:22;11.30;;;6.65;;
30862;SDS011;17573;55.922;37.540;2023-01-15T14:39:58;26.85;;;9.95;;
30862;SDS011;17573;55.922;37.540;2023-01-15T14:42:32;22.63;;;10.48;;
30862;SDS011;17573;55.922;37.540;2023-01-15T14:50:54;17.95;;;9.07;;
30862;SDS011;17573;55.922;37.540;2023-01-15T14:53:34;19.15;;;8.23;;
30862;SDS011;17573;55.922;37.540;2023-01-15T14:56:24;15.48;;;7.38;;
30862;SDS011;17573;55.922;37.540;2023-01-15T15:01:36;20.60;;;8.73;;
30862;SDS011;17573;55.922;37.540;2023-01-15T15:04:13;19.63;;;8.48;;
30862;SDS011;17573;55.922;37.540;2023-01-15T15:06:57;25.42;;;9.50;;
30862;SDS011;17573;55.922;37.540;2023-01-15T15:09:36;31.60;;;11.40;;
30862;SDS011;17573;55.922;37.540;2023-01-15T15:15:00;30.27;;;8.07;;
30862;SDS011;17573;55.922;37.540;2023-01-15T15:18:19;24.73;;;13.45;;
30862;SDS011;17573;55.922;37.540;2023-01-15T15:20:36;9.13;;;6.93;;
30862;SDS011;17573;55.922;37.540;2023-01-15T15:25:47;11.88;;;7.20;;
30862;SDS011;17573;55.922;37.540;2023-01-15T15:28:19;13.50;;;7.40;;
30862;SDS011;17573;55.922;37.540;2023-01-15T15:30:45;26.13;;;9.52;;
30862;SDS011;17573;55.922;37.540;2023-01-15T15:33:15;22.40;;;9.00;;
30862;SDS011;17573;55.922;37.540;2023-01-15T15:35:44;15.40;;;7.18;;
30862;SDS011;17573;55.922;37.540;2023-01-15T15:38:13;18.73;;;9.45;;
30862;SDS011;17573;55.922;37.540;2023-01-15T15:40:43;13.95;;;8.68;;
30862;SDS011;17573;55.922;37.540;2023-01-15T15:45:56;26.60;;;11.07;;
30862;SDS011;17573;55.922;37.540;2023-01-15T15:48:42;10.60;;;7.70;;
30862;SDS011;17573;55.922;37.540;2023-01-15T15:57:03;22.52;;;8.30;;
30862;SDS011;17573;55.922;37.540;2023-01-15T16:02:07;12.40;;;8.75;;
30862;SDS011;17573;55.922;37.540;2023-01-15T16:04:59;9.13;;;6.85;;
30862;SDS011;17573;55.922;37.540;2023-01-15T16:07:28;17.83;;;6.00;;
30862;SDS011;17573;55.922;37.540;2023-01-15T16:09:59;15.13;;;8.80;;
30862;SDS011;17573;55.922;37.540;2023-01-15T16:12:50;14.60;;;8.70;;
30862;SDS011;17573;55.922;37.540;2023-01-15T16:15:17;27.35;;;9.90;;
30862;SDS011;17573;55.922;37.540;2023-01-15T16:17:52;19.13;;;9.35;;
30862;SDS011;17573;55.922;37.540;2023-01-15T16:20:19;17.55;;;10.43;;
30862;SDS011;17573;55.922;37.540;2023-01-15T16:22:48;22.65;;;11.52;;
30862;SDS011;17573;55.922;37.540;2023-01-15T16:27:58;10.93;;;6.03;;
30862;SDS011;17573;55.922;37.540;2023-01-15T16:30:24;20.23;;;7.85;;
30862;SDS011;17573;55.922;37.540;2023-01-15T16:32:50;16.63;;;8.20;;
30862;SDS011;17573;55.922;37.540;2023-01-15T16:35:18;15.73;;;7.32;;
30862;SDS011;17573;55.922;37.540;2023-01-15T16:37:51;23.10;;;8.57;;
30862;SDS011;17573;55.922;37.540;2023-01-15T16:40:31;19.20;;;9.60;;
30862;SDS011;17573;55.922;37.540;2023-01-15T16:43:20;16.77;;;9.70;;
30862;SDS011;17573;55.922;37.540;2023-01-15T16:50:49;28.52;;;13.95;;
30862;SDS011;17573;55.922;37.540;2023-01-15T16:53:36;14.00;;;8.73;;
30862;SDS011;17573;55.922;37.540;2023-01-15T16:56:03;23.67;;;8.80;;
30862;SDS011;17573;55.922;37.540;2023-01-15T16:58:31;40.97;;;9.77;;
30862;SDS011;17573;55.922;37.540;2023-01-15T17:00:59;27.45;;;12.13;;